LYBE/BEG METAR and TAF weather

Enter ICAO airport designator
Station Type Date Time Source
LYBE METAR 2020/09/18 22:30 UTC NOAA

LYBE 182230Z 32002KT CAVOK 12/03 Q1024 NOSIG


Station Type Date Time Source
LYBE Decoded METAR 2020/09/18 22:30 UTC NOAA

Beograd / Surcin, Serbia and Montenegro (LYBE) 44-49N 020-17E 99M
Sep 18, 2020 - 06:30 PM EDT / 2020.09.18 2230 UTC
Wind: from the NW (320 degrees) at 2 MPH (2 KT):0
Visibility: greater than 7 mile(s):0
Temperature: 53 F (12 C)
Dew Point: 37 F (3 C)
Relative Humidity: 54%
Pressure (altimeter): 30.24 in. Hg (1024 hPa)
ob: LYBE 182230Z 32002KT CAVOK 12/03 Q1024 NOSIG
cycle: 22

Station Type Date Time Source
LYBE TAF 2020/09/18 18:21 UTC NOAA

TAF LYBE 181700Z 1818/1918 33009KT CAVOK TX26/1914Z TN11/1904Z

Example: see airport list